METAR Data
IDs: Format: Raw Decoded Include TAF

Data at: 1103 UTC 28 Jul 2021

KNUQ 281055Z AUTO 00000KT 10SM CLR 16/14 A3001 RMK AO2
KNUQ 281035Z AUTO 29004KT 10SM CLR 17/14 A3002 RMK AO2
KNUQ 281015Z AUTO 29003KT 10SM CLR 17/15 A3002 RMK AO2
KNUQ 280955Z AUTO 00000KT 10SM CLR 17/15 A3002 RMK AO2
KNUQ 280935Z AUTO 30004KT 10SM CLR 17/15 A3002 RMK AO2
KNUQ 280915Z AUTO 28004KT 10SM CLR 17/15 A3002 RMK AO2
KNUQ 280855Z AUTO 29003KT 10SM CLR 17/15 A3002 RMK AO2
KNUQ 280835Z AUTO 30003KT 10SM CLR 17/15 A3002 RMK AO2
KNUQ 280815Z AUTO 31004KT 10SM CLR 17/15 A3002 RMK AO2
KNUQ 280755Z AUTO 00000KT 10SM CLR 17/15 A3002 RMK AO2
KNUQ 280735Z AUTO 31004KT 10SM CLR 18/15 A3002 RMK AO2
KNUQ 280715Z AUTO 31004KT 10SM CLR 18/15 A3002 RMK AO2
KNUQ 280655Z AUTO VRB04KT 10SM CLR 18/15 A3002 RMK AO2
KNUQ 280635Z AUTO 29004KT 10SM CLR 18/15 A3002 RMK AO2
KNUQ 280615Z AUTO 27004KT 10SM CLR 18/15 A3002 RMK AO2
KNUQ 280555Z AUTO 32004KT 10SM CLR 18/15 A3002 RMK AO2
KNUQ 280535Z AUTO 32005KT 10SM CLR 19/14 A3002 RMK AO2
KNUQ 280515Z AUTO 32005KT 10SM CLR 19/14 A3002 RMK AO2
KNUQ 280455Z AUTO 33006KT 10SM CLR 19/14 A3001 RMK AO2
KNUQ 280435Z AUTO 36009KT 10SM CLR 19/14 A3000 RMK AO2
KNUQ 280415Z AUTO 35009KT 10SM CLR 20/14 A2999 RMK AO2
KNUQ 280355Z AUTO 33007G12KT 10SM CLR 20/14 A2999 RMK AO2
KNUQ 280335Z AUTO 36011KT 10SM CLR 21/14 A2998 RMK AO2
KNUQ 280315Z AUTO 34012KT 10SM CLR 21/14 A2997 RMK AO2
KNUQ 280255Z AUTO 33011G16KT 10SM CLR 22/14 A2996 RMK AO2
KNUQ 280235Z AUTO 34012G18KT 10SM CLR 22/14 A2996 RMK AO2
KNUQ 280215Z AUTO 34015KT 10SM CLR 22/14 A2995 RMK AO2
KNUQ 280155Z AUTO 35017KT 10SM CLR 23/14 A2994 RMK AO2
KNUQ 280135Z AUTO 34015KT 10SM CLR 23/14 A2994 RMK AO2
KNUQ 280115Z AUTO 34017KT 10SM CLR 24/14 A2994 RMK AO2
KNUQ 280055Z AUTO 34013KT 10SM CLR 24/13 A2993 RMK AO2
KNUQ 280035Z AUTO 34012KT 10SM CLR 24/15 A2994 RMK AO2
KNUQ 280015Z AUTO 35013KT 10SM CLR 24/14 A2994 RMK AO2
KNUQ 272355Z AUTO 34013KT 10SM CLR 25/15 A2994 RMK AO2
KNUQ 272335Z AUTO 34015KT 10SM CLR 25/14 A2994 RMK AO2
KNUQ 272315Z AUTO 34010G15KT 10SM CLR 25/15 A2995 RMK AO2
KNUQ 272255Z AUTO 33010KT 10SM CLR 25/15 A2996 RMK AO2
KNUQ 272235Z AUTO 33010KT 10SM CLR 25/15 A2996 RMK AO2
KNUQ 272215Z AUTO 33010G16KT 10SM CLR 25/15 A2996 RMK AO2
KNUQ 272155Z AUTO 33011KT 10SM CLR 26/14 A2996 RMK AO2
KNUQ 272135Z AUTO 35013KT 10SM CLR 26/12 A2997 RMK AO2
KNUQ 272115Z AUTO 33011KT 10SM CLR 26/12 A2997 RMK AO2
KNUQ 272055Z AUTO 34012KT 10SM CLR 26/14 A2997 RMK AO2
KNUQ 272035Z AUTO 35011KT 10SM CLR 26/13 A2998 RMK AO2
KNUQ 272015Z AUTO 35010KT 10SM CLR 25/12 A2998 RMK AO2
KNUQ 271955Z AUTO 34010KT 10SM CLR 25/14 A2998 RMK AO2
KNUQ 271935Z AUTO 33008KT 10SM CLR 25/14 A2998 RMK AO2
KNUQ 271915Z AUTO 35007KT 10SM CLR 24/16 A2999 RMK AO2
KNUQ 271855Z AUTO 34007KT 10SM CLR 23/16 A3000 RMK AO2
KNUQ 271835Z AUTO 35007KT 10SM CLR 23/16 A3000 RMK AO2
KNUQ 271815Z AUTO 36006KT 10SM CLR 22/16 A3000 RMK AO2
KNUQ 271755Z AUTO 36007KT 10SM CLR 22/16 A3000 RMK AO2
KNUQ 271735Z AUTO 35007KT 10SM CLR 21/16 A3000 RMK AO2
KNUQ 271715Z AUTO 36006KT 10SM CLR 21/16 A3000 RMK AO2
KNUQ 271655Z AUTO 34006KT 10SM CLR 21/16 A3000 RMK AO2
KNUQ 271635Z AUTO 36007KT 10SM CLR 20/16 A3000 RMK AO2
KNUQ 271615Z AUTO VRB05KT 10SM CLR 20/15 A3000 RMK AO2
KNUQ 271555Z AUTO 00000KT 10SM CLR 19/15 A3000 RMK AO2
KNUQ 271535Z AUTO 34005KT 10SM CLR 18/15 A3000 RMK AO2
KNUQ 271515Z AUTO 34004KT 10SM CLR 18/15 A2999 RMK AO2
KNUQ 271455Z AUTO 33004KT 10SM CLR 18/15 A2998 RMK AO2
KNUQ 271435Z AUTO 00000KT 10SM CLR 18/15 A2998 RMK AO2
KNUQ 271415Z AUTO 36004KT 10SM CLR 17/15 A2997 RMK AO2 LTG DSNT N
KNUQ 271355Z AUTO 00000KT 10SM CLR 17/15 A2997 RMK AO2
KNUQ 271335Z AUTO 00000KT 10SM CLR 17/15 A2996 RMK AO2
KNUQ 271315Z AUTO 00000KT 10SM CLR 17/14 A2996 RMK AO2
KNUQ 271255Z AUTO 00000KT 10SM FEW110 17/15 A2996 RMK AO2
KNUQ 271235Z AUTO 00000KT 10SM SCT110 17/14 A2996 RMK AO2
KNUQ 271215Z AUTO 01004KT 10SM FEW065 FEW075 SCT120 17/15 A2995 RMK AO2
KNUQ 271155Z AUTO 00000KT 10SM FEW110 17/15 A2995 RMK AO2
KNUQ 271135Z AUTO 00000KT 10SM CLR 17/14 A2996 RMK AO2 LTG DSNT N
KNUQ 271115Z AUTO 36004KT 10SM CLR 17/14 A2995 RMK AO2
KNUQ 271055Z AUTO 34003KT 10SM CLR 17/14 A2995 RMK AO2
KNUQ 271035Z AUTO 35004KT 10SM CLR 17/14 A2995 RMK AO2
KNUQ 271015Z AUTO 00000KT 10SM FEW011 17/14 A2995 RMK AO2
KNUQ 270955Z AUTO 00000KT 10SM CLR 17/14 A2994 RMK AO2
KNUQ 270935Z AUTO 00000KT 10SM CLR 17/14 A2994 RMK AO2
KNUQ 270915Z AUTO 00000KT 10SM CLR 17/14 A2994 RMK AO2
KNUQ 270855Z AUTO 27003KT 10SM CLR 17/14 A2993 RMK AO2
KNUQ 270835Z AUTO 00000KT 10SM CLR 17/14 A2994 RMK AO2
KNUQ 270815Z AUTO 00000KT 10SM CLR 17/14 A2995 RMK AO2
KNUQ 270755Z AUTO 00000KT 10SM CLR 17/14 A2995 RMK AO2
KNUQ 270735Z AUTO 00000KT 10SM CLR 17/13 A2995 RMK AO2
KNUQ 270715Z AUTO 00000KT 10SM CLR 16/13 A2995 RMK AO2
KNUQ 270655Z AUTO 29003KT 10SM CLR 17/13 A2996 RMK AO2
KNUQ 270635Z AUTO 28003KT 10SM CLR 17/13 A2996 RMK AO2
KNUQ 270615Z AUTO 32004KT 10SM CLR 17/13 A2996 RMK AO2
KNUQ 270555Z AUTO 33004KT 10SM CLR 17/13 A2996 RMK AO2
KNUQ 270535Z AUTO 36008KT 10SM CLR 17/13 A2996 RMK AO2
KNUQ 270515Z AUTO 34004KT 10SM CLR 18/14 A2995 RMK AO2
KNUQ 270455Z AUTO 31004KT 10SM CLR 18/14 A2994 RMK AO2
KNUQ 270435Z AUTO 32004KT 10SM CLR 18/14 A2994 RMK AO2
KNUQ 270415Z AUTO 33007KT 10SM CLR 18/14 A2993 RMK AO2
KNUQ 270355Z AUTO 36011KT 10SM CLR 18/14 A2992 RMK AO2
KNUQ 270335Z AUTO 34007KT 10SM CLR 19/15 A2991 RMK AO2
KNUQ 270315Z AUTO 34007KT 10SM CLR 19/14 A2991 RMK AO2
KNUQ 270255Z AUTO 34007KT 10SM CLR 19/14 A2991 RMK AO2
KNUQ 270235Z AUTO 33007KT 10SM CLR 19/14 A2991 RMK AO2
KNUQ 270215Z AUTO 34008G13KT 10SM CLR 20/14 A2991 RMK AO2
KNUQ 270155Z AUTO 32007KT 10SM CLR 20/14 A2991 RMK AO2
KNUQ 270135Z AUTO 33008KT 10SM CLR 21/14 A2990 RMK AO2
KNUQ 270115Z AUTO 32007KT 10SM CLR 21/14 A2990 RMK AO2
KNUQ 270055Z AUTO 33007G12KT 10SM CLR 22/15 A2990 RMK AO2
KNUQ 270035Z AUTO 34010KT 10SM CLR 22/15 A2990 RMK AO2
KNUQ 270015Z AUTO 33011KT 10SM CLR 22/14 A2989 RMK AO2
KNUQ 262355Z AUTO 34011KT 10SM CLR 22/14 A2989 RMK AO2
KNUQ 262335Z AUTO 34012KT 10SM CLR 22/14 A2989 RMK AO2
KNUQ 262315Z AUTO 35012KT 10SM CLR 22/14 A2990 RMK AO2